CanjetBLOCKVirtuelBLOCKQcBLOCKBLOCKBLOCKBLOCKBLOCKBLOCKBLOCKBLOCKBLOCKBLOCKBLOCKvolsBLOCKavecBLOCKFS-kACARS2019-03-21BLOCK10colon43am

volsBLOCKBLOCKBLOCKBLOCKpilotesBLOCKBLOCKBLOCKBLOCKtypeBLOCKBLOCKdepBLOCKBLOCKarrBLOCKBLOCKBLOCKBLOCKBLOCKaltBLOCKBLOCKBLOCKBLOCKgsBLOCKBLOCKBLOCKBLOCKstatut

CJA7787YvanBLOCKRB77LKLAX-YSSY36119ft467kts01colon07pm










BLOCKAppuyerBLOCKsurBLOCKF5BLOCKpourBLOCKactualiserBLOCKBLOCKBLOCKMiseBLOCKaBLOCKjourcolonBLOCK10colon43colon06amCanjetBLOCKvirtuelBLOCKQC

Problèmes avec 737 MAX

Publié par Yvan Roy le 2019-03-20

                                               


Bienvenue chez Canjetvirtuel-Q

Publié par Michel Ayotte le 2013-06-14

 

Canjetvirtuel-Québec est une compagnie aérienne virtuelle qui a été fondée par 2 passionnés de la simulation de vol.

Elle est opérée avec les Boeing 737. Exceptionnelement et pour votre plaisir les Boeing 747,757,767 et 777 sont autorisés pour des vols de plus de 2,5 heures.

Ces appareils pouvant faire des vols cargos ou des vols passagers,que ce soit au Canada, Europe, États-Unis, Mexique et Caraïbes.

Vous trouverez votre place comme pilote chez nous!



Avis

Aux fins de la simulation de vol seulement. CanjetVirtuel Québec n'est en aucun cas affilié avec n'importe quelle compagnie aérienne du monde réel. CanjetVirtuel Québec est un site à but non lucratif gérée par des amateurs de simulation de vol. Toutes les images sont la propriété exclusive de leurs propriétaires respectifs.
| propulsé par phpVMS, © 2013-2019.

Notice

For flight simulation purposes only. CanjetVirtuel Quebec is in no way affiliated with any real world airline. CanjetVirtuel Quebec is a non-profit site run by flight simulation enthusiasts. All images are the sole property of their respective owners.
| powered by phpVMS, © 2013-2019.

Affiliations

Vatsim

Les statistiques du site

Nombre de pilotes: 12
Total des vols effectués: 4661
Trajets disponibles: 593
Passagers transportés: 1087759
Total des heures de vol: 13602
Distance totale (NM): 5890744
Pilotes en ligne: 2

METAR

CYHZ 211400Z 17006KT 15SM FEW005 SCT250 02/M01 A3033 RMK SF1CI2 SLP279

CYQB 211400Z 00000KT 30SM SCT050 BKN090 M01/M05 A3007 RMK SC4AC3 SLP190

CYUL 211400Z 17008KT 15SM FEW042 OVC065 05/M02 A3005 RMK SC2SC6 SLP180

CYYZ 211400Z 10004KT 10SM BKN029 OVC060 04/02 A2991 RMK SC5SC3 SLP135